Time;durP1;ratioP1;P1;durP2;ratioP2;P2;SDS_P1;SDS_P2;PMS_P1;PMS_P2;Temp;Humidity;BMP_temperature;BMP_pressure;BME280_temperature;BME280_humidity;BME280_pressure;Samples;Min_cycle;Max_cycle;Signal;HPM_P1;HPM_P2
2023/10/08 00:01:41;;;;;;;6.55;3.78;;;16.90;96.20;;;;;;5096243;28;20231;-69
2023/10/08 00:04:10;;;;;;;7.90;3.85;;;16.70;96.50;;;;;;5096211;28;20295;-69
2023/10/08 00:06:37;;;;;;;6.97;4.20;;;16.70;96.80;;;;;;5096089;28;20209;-69
2023/10/08 00:09:07;;;;;;;8.52;3.75;;;16.60;96.80;;;;;;5095898;28;20200;-69
2023/10/08 00:11:36;;;;;;;5.25;3.80;;;16.80;96.70;;;;;;5095992;28;20273;-69
2023/10/08 00:14:05;;;;;;;7.30;4.18;;;16.70;97.10;;;;;;5096178;28;20197;-69
2023/10/08 00:16:33;;;;;;;6.05;3.95;;;16.80;96.80;;;;;;5095826;28;20196;-69
2023/10/08 00:19:07;;;;;;;8.25;3.63;;;16.80;97.00;;;;;;5095835;28;20283;-69
2023/10/08 00:21:36;;;;;;;6.65;4.10;;;16.90;96.90;;;;;;5095909;28;20207;-70
2023/10/08 00:24:06;;;;;;;7.72;4.15;;;16.90;97.00;;;;;;5095734;28;20239;-69
2023/10/08 00:26:35;;;;;;;7.75;3.75;;;16.70;97.30;;;;;;5095764;28;20250;-69
2023/10/08 00:29:06;;;;;;;8.70;4.00;;;16.80;97.20;;;;;;5095685;28;20563;-69
2023/10/08 00:31:40;;;;;;;6.30;3.40;;;16.80;97.20;;;;;;5095535;28;20220;-69
2023/10/08 00:34:11;;;;;;;7.13;3.60;;;16.90;97.20;;;;;;5095540;28;20219;-69
2023/10/08 00:36:38;;;;;;;8.38;3.92;;;16.80;97.40;;;;;;5095354;28;20664;-69
2023/10/08 00:39:08;;;;;;;5.28;3.47;;;16.80;97.60;;;;;;5095492;28;20197;-69
2023/10/08 00:41:37;;;;;;;7.50;3.60;;;16.80;97.30;;;;;;5095228;28;20306;-69
2023/10/08 00:44:08;;;;;;;5.95;4.00;;;16.80;97.60;;;;;;5095235;28;20197;-69
2023/10/08 00:46:39;;;;;;;5.53;3.47;;;16.80;97.70;;;;;;5095093;28;20200;-69
2023/10/08 00:49:23;;;;;;;10.25;3.83;;;16.80;97.80;;;;;;5095104;28;20197;-69
2023/10/08 00:52:00;;;;;;;7.07;3.90;;;16.80;97.70;;;;;;5095112;28;20224;-69
2023/10/08 00:54:32;;;;;;;9.38;4.68;;;16.80;97.90;;;;;;5095118;28;20203;-69
2023/10/08 00:57:04;;;;;;;6.28;3.95;;;16.80;98.10;;;;;;5094937;28;20203;-69
2023/10/08 00:59:37;;;;;;;6.10;3.90;;;16.80;98.10;;;;;;5095039;28;20651;-69
2023/10/08 01:02:07;;;;;;;6.20;3.70;;;16.80;98.20;;;;;;5095027;28;20204;-69
2023/10/08 01:04:34;;;;;;;4.13;3.70;;;16.80;98.30;;;;;;5094817;28;20348;-69
2023/10/08 01:07:12;;;;;;;6.82;4.07;;;16.70;98.50;;;;;;5094769;28;20675;-69
2023/10/08 01:09:40;;;;;;;7.07;3.97;;;16.70;98.60;;;;;;5094603;28;20253;-69
2023/10/08 01:12:15;;;;;;;7.93;3.70;;;16.60;98.90;;;;;;5094669;28;20224;-69
2023/10/08 01:14:43;;;;;;;7.45;3.60;;;16.50;99.20;;;;;;5094664;28;20249;-68
2023/10/08 01:17:14;;;;;;;6.75;3.78;;;16.50;99.20;;;;;;5094568;28;20597;-68
2023/10/08 01:19:43;;;;;;;7.72;3.92;;;16.60;99.30;;;;;;5094454;28;20204;-69
2023/10/08 01:22:18;;;;;;;8.60;3.72;;;16.60;99.20;;;;;;5094237;28;20602;-69
2023/10/08 01:24:45;;;;;;;9.57;4.32;;;16.50;99.40;;;;;;5094447;28;20280;-69
2023/10/08 01:27:12;;;;;;;5.90;3.53;;;16.60;99.50;;;;;;5094385;28;20205;-69
2023/10/08 01:29:39;;;;;;;7.75;3.83;;;16.50;99.60;;;;;;5094351;28;20196;-69
2023/10/08 01:32:10;;;;;;;8.63;4.22;;;16.50;99.60;;;;;;5094167;28;20270;-69
2023/10/08 01:34:37;;;;;;;9.52;3.67;;;16.50;99.80;;;;;;5094162;28;20257;-69
2023/10/08 01:37:08;;;;;;;8.10;3.65;;;16.40;99.90;;;;;;5094354;28;20196;-69
2023/10/08 01:39:37;;;;;;;6.97;3.75;;;16.40;99.90;;;;;;5094310;28;20200;-69
2023/10/08 01:42:05;;;;;;;8.02;3.78;;;16.30;99.90;;;;;;5093944;28;20228;-69
2023/10/08 01:44:33;;;;;;;5.97;3.83;;;16.20;99.90;;;;;;5094063;28;20333;-69
2023/10/08 01:47:01;;;;;;;7.10;3.33;;;16.10;99.90;;;;;;5093841;28;20283;-69
2023/10/08 01:49:32;;;;;;;9.03;3.87;;;16.10;99.90;;;;;;5094174;28;20200;-69
2023/10/08 01:52:05;;;;;;;6.20;3.85;;;16.10;99.90;;;;;;5093951;28;20220;-69
2023/10/08 01:54:35;;;;;;;7.88;4.03;;;16.20;99.90;;;;;;5093797;28;20196;-69
2023/10/08 01:57:03;;;;;;;4.97;3.67;;;16.10;99.90;;;;;;5093770;28;20232;-69
2023/10/08 01:59:33;;;;;;;7.15;3.72;;;16.20;99.90;;;;;;5093789;28;20224;-70
2023/10/08 02:01:59;;;;;;;9.25;3.90;;;16.20;99.90;;;;;;5093947;28;20291;-70
2023/10/08 02:04:26;;;;;;;5.15;3.88;;;16.10;99.90;;;;;;5093891;28;20196;-69
2023/10/08 02:06:53;;;;;;;7.60;4.07;;;16.10;99.90;;;;;;5093452;28;20200;-68
2023/10/08 02:09:25;;;;;;;9.40;3.90;;;16.20;99.90;;;;;;5093540;28;20200;-69
2023/10/08 02:11:53;;;;;;;7.57;3.80;;;16.10;99.90;;;;;;5093478;28;20618;-68
2023/10/08 02:14:22;;;;;;;6.75;3.90;;;16.10;99.90;;;;;;5093280;28;20231;-68
2023/10/08 02:16:49;;;;;;;6.10;4.05;;;16.10;99.90;;;;;;5093560;28;20258;-68
2023/10/08 02:19:18;;;;;;;5.40;3.90;;;16.10;99.90;;;;;;5092739;28;20291;-68
2023/10/08 02:21:46;;;;;;;6.80;3.85;;;16.10;99.90;;;;;;5093259;28;20601;-69
2023/10/08 02:24:13;;;;;;;8.73;3.50;;;16.10;99.90;;;;;;5093189;28;20550;-69
2023/10/08 02:26:42;;;;;;;5.50;3.65;;;16.10;99.90;;;;;;5093183;28;20521;-69
2023/10/08 02:29:11;;;;;;;5.72;3.95;;;16.10;99.90;;;;;;5093182;28;20586;-69
2023/10/08 02:31:40;;;;;;;6.32;3.92;;;16.10;99.90;;;;;;5093312;28;20199;-69
2023/10/08 02:34:08;;;;;;;6.07;3.60;;;16.10;99.90;;;;;;5093272;28;20196;-69
2023/10/08 02:36:37;;;;;;;5.57;3.60;;;16.10;99.90;;;;;;5093279;28;20196;-69
2023/10/08 02:39:07;;;;;;;6.50;4.25;;;16.10;99.90;;;;;;5093038;28;20287;-69
2023/10/08 02:41:33;;;;;;;7.88;3.53;;;16.10;99.90;;;;;;5093327;28;20622;-69
2023/10/08 02:44:00;;;;;;;10.20;3.90;;;16.10;99.90;;;;;;5092964;28;20659;-69
2023/10/08 02:46:29;;;;;;;5.65;3.72;;;16.10;99.90;;;;;;5093154;28;20203;-69
2023/10/08 02:48:57;;;;;;;5.60;3.60;;;16.10;99.90;;;;;;5092979;28;20287;-69
2023/10/08 02:51:24;;;;;;;6.25;4.13;;;16.10;99.90;;;;;;5092965;28;20199;-69
2023/10/08 02:53:51;;;;;;;8.70;4.10;;;16.20;99.90;;;;;;5092762;28;20626;-69
2023/10/08 02:56:18;;;;;;;8.75;3.85;;;16.20;99.90;;;;;;5093101;28;20193;-69
2023/10/08 02:58:47;;;;;;;6.65;4.15;;;16.10;99.90;;;;;;5092975;28;20295;-69
2023/10/08 03:01:14;;;;;;;7.43;3.67;;;16.10;99.90;;;;;;5092919;28;20196;-69
2023/10/08 03:03:42;;;;;;;7.60;4.20;;;16.10;99.90;;;;;;5092835;28;20199;-69
2023/10/08 03:06:11;;;;;;;6.47;3.75;;;16.10;99.90;;;;;;5092717;28;20660;-69
2023/10/08 03:08:41;;;;;;;7.60;4.13;;;16.00;99.90;;;;;;5093038;28;20199;-69
2023/10/08 03:11:16;;;;;;;5.53;3.90;;;16.10;99.90;;;;;;5092879;28;20204;-69
2023/10/08 03:13:46;;;;;;;5.85;3.80;;;16.10;99.90;;;;;;5092827;28;20322;-68
2023/10/08 03:16:13;;;;;;;7.05;3.65;;;16.10;99.90;;;;;;5093103;28;20200;-69
2023/10/08 03:18:43;;;;;;;9.10;3.97;;;16.00;99.90;;;;;;5092662;28;20192;-69
2023/10/08 03:21:20;;;;;;;8.38;4.13;;;16.00;99.90;;;;;;5092866;28;20197;-70
2023/10/08 03:23:48;;;;;;;6.38;4.10;;;16.10;99.90;;;;;;5092703;28;20637;-68
2023/10/08 03:26:32;;;;;;;9.05;4.25;;;16.10;99.90;;;;;;5092759;28;20269;-69
2023/10/08 03:29:05;;;;;;;7.43;4.25;;;16.10;99.90;;;;;;5092622;28;20235;-69
2023/10/08 03:31:49;;;;;;;6.88;4.20;;;16.00;99.90;;;;;;5093128;28;20231;-69
2023/10/08 03:34:18;;;;;;;7.80;4.60;;;15.90;99.90;;;;;;5096580;28;20374;-69
2023/10/08 03:36:49;;;;;;;7.88;4.38;;;15.90;99.90;;;;;;5096510;28;20202;-68
2023/10/08 03:39:18;;;;;;;5.20;3.75;;;15.80;99.90;;;;;;5096483;28;20203;-69
2023/10/08 03:41:57;;;;;;;7.38;4.15;;;15.80;99.90;;;;;;5096038;28;20228;-68
2023/10/08 03:44:24;;;;;;;5.80;4.10;;;15.80;99.90;;;;;;5096454;28;20205;-69
2023/10/08 03:46:52;;;;;;;7.38;4.13;;;15.70;99.90;;;;;;5096352;28;20197;-68
2023/10/08 03:49:26;;;;;;;4.90;4.10;;;15.70;99.90;;;;;;5096248;28;20193;-69
2023/10/08 03:51:57;;;;;;;8.75;4.20;;;15.70;99.90;;;;;;5096182;28;20256;-68
2023/10/08 03:54:29;;;;;;;5.68;4.10;;;15.60;99.90;;;;;;5096007;28;20319;-68
2023/10/08 03:56:57;;;;;;;5.18;4.00;;;15.60;99.90;;;;;;5096028;28;20708;-69
2023/10/08 03:59:31;;;;;;;4.97;3.97;;;15.60;99.90;;;;;;5096093;28;20192;-69
2023/10/08 04:02:01;;;;;;;7.87;4.40;;;15.60;99.90;;;;;;5096156;28;20639;-69
2023/10/08 04:04:48;;;;;;;6.35;3.88;;;15.50;99.90;;;;;;5096046;28;20292;-69
2023/10/08 04:07:28;;;;;;;7.63;4.27;;;15.50;99.90;;;;;;5096141;28;20200;-69
2023/10/08 04:10:05;;;;;;;7.22;4.07;;;15.50;99.90;;;;;;5096131;28;20661;-69
2023/10/08 04:12:34;;;;;;;8.50;4.27;;;15.40;99.90;;;;;;5095816;28;20245;-69
2023/10/08 04:15:01;;;;;;;6.30;4.10;;;15.30;99.90;;;;;;5095646;28;20246;-69
2023/10/08 04:17:28;;;;;;;7.17;4.57;;;15.30;99.90;;;;;;5095817;28;20200;-69
2023/10/08 04:19:58;;;;;;;7.47;3.97;;;15.30;99.90;;;;;;5095809;28;20204;-69
2023/10/08 04:22:26;;;;;;;6.13;4.13;;;15.20;99.90;;;;;;5095516;28;20655;-69
2023/10/08 04:24:53;;;;;;;6.80;4.23;;;15.30;99.90;;;;;;5095535;28;20333;-69
2023/10/08 04:27:22;;;;;;;6.17;4.07;;;15.30;99.90;;;;;;5095554;28;20200;-69
2023/10/08 04:29:49;;;;;;;7.80;4.40;;;15.40;99.90;;;;;;5095391;28;20291;-69
2023/10/08 04:32:24;;;;;;;8.23;3.93;;;15.30;99.90;;;;;;5095463;28;20192;-69
2023/10/08 04:34:53;;;;;;;7.27;4.20;;;15.30;99.90;;;;;;5095664;28;20297;-69
2023/10/08 04:37:20;;;;;;;5.13;4.23;;;15.30;99.90;;;;;;5095359;28;20218;-68
2023/10/08 04:39:57;;;;;;;6.30;4.17;;;15.20;99.90;;;;;;5097150;28;20196;-69
2023/10/08 04:42:26;;;;;;;5.80;4.33;;;15.20;99.90;;;;;;5081554;28;20263;-69
2023/10/08 04:44:54;;;;;;;6.70;4.10;;;15.10;99.90;;;;;;5075106;28;20201;-69
2023/10/08 04:47:31;;;;;;;8.00;4.40;;;15.00;99.90;;;;;;5075011;28;20219;-69
2023/10/08 04:49:58;;;;;;;9.43;4.47;;;14.90;99.90;;;;;;5074893;28;20196;-68
2023/10/08 04:52:25;;;;;;;6.80;4.37;;;14.80;99.90;;;;;;5074629;28;20594;-68
2023/10/08 04:54:54;;;;;;;6.53;4.47;;;14.80;99.90;;;;;;5074929;28;20197;-68
2023/10/08 04:57:22;;;;;;;12.17;4.23;;;14.70;99.90;;;;;;5074670;28;20653;-68
2023/10/08 04:59:50;;;;;;;9.17;4.53;;;14.70;99.90;;;;;;5074532;28;20193;-68
2023/10/08 05:02:20;;;;;;;10.03;4.50;;;14.60;99.90;;;;;;5074337;28;20557;-69
2023/10/08 05:05:07;;;;;;;7.67;4.40;;;14.60;99.90;;;;;;5074352;28;20720;-69
2023/10/08 05:10:44;;;;;;;5.97;4.30;;;14.60;99.90;;;;;;5058508;28;20212;-69
2023/10/08 05:13:16;;;;;;;7.77;4.33;;;14.60;99.90;;;;;;5074269;28;20628;-69
2023/10/08 05:16:01;;;;;;;7.47;4.30;;;14.60;99.90;;;;;;5074553;28;20197;-69
2023/10/08 05:18:54;;;;;;;6.77;4.10;;;14.70;99.90;;;;;;5074407;28;20251;-69
2023/10/08 05:21:25;;;;;;;8.13;4.80;;;14.70;99.90;;;;;;5074108;28;20285;-69
2023/10/08 05:24:08;;;;;;;7.63;4.50;;;14.70;99.90;;;;;;5074067;28;20204;-69
2023/10/08 05:26:45;;;;;;;7.43;4.50;;;14.60;99.90;;;;;;5074288;28;20205;-69
2023/10/08 05:29:39;;;;;;;8.47;4.80;;;14.60;99.90;;;;;;5074051;28;20269;-69
2023/10/08 05:35:30;;;;;;;7.60;4.17;;;14.60;99.90;;;;;;5074196;28;20235;-69
2023/10/08 05:37:42;;;;;;;8.83;4.70;;;14.50;99.90;;;;;;5073746;28;20201;-69
2023/10/08 05:40:21;;;;;;;9.40;4.50;;;14.50;99.90;;;;;;5073814;28;20289;-69
2023/10/08 05:42:59;;;;;;;8.07;4.77;;;14.50;99.90;;;;;;5074019;28;20254;-69
2023/10/08 05:45:30;;;;;;;7.07;4.77;;;14.50;99.90;;;;;;5073842;28;20200;-69
2023/10/08 05:48:14;;;;;;;11.00;4.70;;;14.50;99.90;;;;;;5073741;28;20197;-68
2023/10/08 05:50:55;;;;;;;9.57;4.73;;;14.70;99.90;;;;;;5073510;28;20279;-68
2023/10/08 05:53:43;;;;;;;9.90;4.63;;;14.70;99.90;;;;;;5073582;28;20229;-69
2023/10/08 05:56:28;;;;;;;8.00;4.23;;;14.70;99.90;;;;;;5073228;28;20205;-68
2023/10/08 05:59:14;;;;;;;11.67;4.73;;;14.70;99.90;;;;;;5073684;28;20197;-68
2023/10/08 06:01:45;;;;;;;9.10;4.30;;;14.60;99.90;;;;;;5073592;28;20193;-68
2023/10/08 06:04:42;;;;;;;10.40;4.43;;;14.60;99.90;;;;;;5073444;28;20201;-69
2023/10/08 06:07:12;;;;;;;7.93;4.77;;;14.70;99.90;;;;;;5073177;28;20207;-69
2023/10/08 06:09:40;;;;;;;8.30;4.80;;;14.70;99.90;;;;;;5073219;28;20197;-68
2023/10/08 06:12:10;;;;;;;7.20;4.73;;;14.80;99.90;;;;;;5073409;28;20205;-68
2023/10/08 06:15:06;;;;;;;7.87;4.43;;;14.80;99.90;;;;;;5073358;28;20316;-68
2023/10/08 06:20:24;;;;;;;8.90;4.83;;;15.00;99.90;;;;;;5062523;28;20307;-69
2023/10/08 06:22:52;;;;;;;8.80;4.57;;;15.10;99.90;;;;;;5073299;28;20201;-69
2023/10/08 06:25:23;;;;;;;8.13;4.60;;;15.10;99.90;;;;;;5073130;28;20242;-69
2023/10/08 06:27:50;;;;;;;6.23;4.00;;;15.10;99.90;;;;;;5073256;28;20238;-69
2023/10/08 06:30:22;;;;;;;5.87;4.37;;;15.20;99.90;;;;;;5072968;28;20205;-68
2023/10/08 06:32:50;;;;;;;6.47;5.03;;;15.20;99.90;;;;;;5072825;28;20208;-69
2023/10/08 06:35:18;;;;;;;7.83;4.77;;;15.20;99.90;;;;;;5073050;28;20284;-68
2023/10/08 06:37:45;;;;;;;8.10;4.60;;;15.30;99.90;;;;;;5073017;28;20197;-69
2023/10/08 06:40:40;;;;;;;6.30;4.47;;;15.30;99.90;;;;;;5072983;28;20204;-69
2023/10/08 06:43:03;;;;;;;10.20;4.50;;;15.40;99.90;;;;;;5072659;28;20189;-69
2023/10/08 06:45:32;;;;;;;8.47;4.93;;;15.40;99.90;;;;;;5072978;28;20197;-69
2023/10/08 06:48:05;;;;;;;9.90;4.70;;;15.50;99.90;;;;;;5072964;28;20208;-69
2023/10/08 06:50:34;;;;;;;8.43;5.03;;;15.50;99.90;;;;;;5072728;28;20721;-69
2023/10/08 06:53:05;;;;;;;6.80;4.73;;;15.60;99.90;;;;;;5072754;28;20266;-69
2023/10/08 06:55:33;;;;;;;9.17;4.67;;;15.60;99.90;;;;;;5072688;28;20197;-69
2023/10/08 06:58:00;;;;;;;7.07;4.40;;;15.60;99.90;;;;;;5072864;28;20193;-69
2023/10/08 07:00:38;;;;;;;7.50;4.57;;;15.60;99.90;;;;;;5072634;28;20631;-69
2023/10/08 07:03:08;;;;;;;6.07;4.53;;;15.60;99.90;;;;;;5072580;28;20208;-69
2023/10/08 07:05:40;;;;;;;7.63;4.33;;;15.60;99.90;;;;;;5073834;28;20196;-68
2023/10/08 07:08:08;;;;;;;9.17;4.73;;;15.50;99.90;;;;;;5076941;28;20196;-68
2023/10/08 07:10:35;;;;;;;8.50;5.27;;;15.60;99.90;;;;;;5077022;28;20251;-69
2023/10/08 07:13:03;;;;;;;8.13;5.10;;;15.70;99.90;;;;;;5076724;28;20208;-69
2023/10/08 07:15:30;;;;;;;8.37;5.00;;;15.70;99.90;;;;;;5076334;28;20632;-68
2023/10/08 07:18:07;;;;;;;6.73;4.57;;;15.70;99.90;;;;;;5076581;28;20287;-68
2023/10/08 07:20:39;;;;;;;8.33;4.63;;;15.70;99.90;;;;;;5084602;28;20203;-69
2023/10/08 07:23:18;;;;;;;6.83;4.70;;;15.80;99.90;;;;;;5076858;28;20208;-69
2023/10/08 07:25:51;;;;;;;7.65;4.88;;;15.90;99.90;;;;;;5076351;28;20656;-69
2023/10/08 07:28:19;;;;;;;6.65;4.40;;;16.10;99.90;;;;;;5076463;28;20192;-69
2023/10/08 07:30:46;;;;;;;8.27;5.22;;;16.10;99.90;;;;;;5076065;28;20201;-71
2023/10/08 07:33:17;;;;;;;5.43;4.43;;;16.00;99.90;;;;;;5075981;28;20602;-69
2023/10/08 07:35:54;;;;;;;6.82;4.40;;;16.20;99.90;;;;;;5076361;28;20204;-69
2023/10/08 07:38:22;;;;;;;8.20;4.53;;;16.30;99.90;;;;;;5076340;28;20197;-69
2023/10/08 07:40:49;;;;;;;9.43;5.15;;;16.50;99.90;;;;;;5080060;28;20285;-69
2023/10/08 07:43:20;;;;;;;6.68;4.45;;;16.40;99.90;;;;;;5096450;28;20655;-71
2023/10/08 07:45:46;;;;;;;8.05;4.70;;;16.50;99.90;;;;;;5096630;28;20227;-68
2023/10/08 07:48:14;;;;;;;7.63;4.50;;;16.50;99.90;;;;;;5096442;28;20200;-69
2023/10/08 07:50:43;;;;;;;9.45;4.90;;;16.50;99.90;;;;;;5096333;28;20197;-68
2023/10/08 07:53:17;;;;;;;7.95;4.78;;;16.50;99.90;;;;;;5096186;28;20396;-69
2023/10/08 07:55:45;;;;;;;8.32;4.80;;;16.70;99.90;;;;;;5096099;28;20201;-69
2023/10/08 07:58:12;;;;;;;7.55;4.47;;;16.70;99.90;;;;;;5096020;28;20284;-69
2023/10/08 08:00:41;;;;;;;7.40;4.07;;;16.80;99.90;;;;;;5096100;28;20551;-70
2023/10/08 08:03:07;;;;;;;7.00;4.80;;;16.80;99.90;;;;;;5096119;28;20234;-69
2023/10/08 08:05:37;;;;;;;10.23;4.75;;;17.00;99.90;;;;;;5095925;28;20253;-69
2023/10/08 08:08:06;;;;;;;9.27;4.53;;;17.10;99.90;;;;;;5095913;28;20204;-69
2023/10/08 08:10:36;;;;;;;6.13;4.78;;;17.20;99.90;;;;;;5095671;28;20287;-69
2023/10/08 08:13:05;;;;;;;8.23;4.45;;;17.40;99.90;;;;;;5096174;28;20223;-69
2023/10/08 08:15:33;;;;;;;7.65;4.60;;;17.70;99.90;;;;;;5095730;28;20224;-70
2023/10/08 08:18:00;;;;;;;6.45;4.63;;;17.90;99.90;;;;;;5094831;28;20219;-69
2023/10/08 08:20:34;;;;;;;8.85;5.18;;;17.70;99.90;;;;;;5095515;28;20212;-69
2023/10/08 08:23:06;;;;;;;7.65;4.78;;;17.80;99.90;;;;;;5095723;28;20223;-69
2023/10/08 08:25:45;;;;;;;7.38;4.55;;;17.90;99.90;;;;;;5095709;28;20208;-69
2023/10/08 08:28:16;;;;;;;7.60;4.82;;;18.00;99.90;;;;;;5095569;28;20624;-69
2023/10/08 08:30:46;;;;;;;7.97;4.70;;;17.90;99.90;;;;;;5095441;28;20624;-69
2023/10/08 08:33:16;;;;;;;7.75;4.88;;;17.90;99.90;;;;;;5095302;28;20203;-71
2023/10/08 08:35:45;;;;;;;6.35;4.63;;;17.80;99.90;;;;;;5095582;28;20227;-69
2023/10/08 08:38:12;;;;;;;8.93;4.72;;;17.80;99.90;;;;;;5095720;28;20236;-69
2023/10/08 08:40:40;;;;;;;8.07;4.95;;;17.90;99.90;;;;;;5095224;28;20198;-69
2023/10/08 08:43:09;;;;;;;9.77;4.68;;;18.10;99.90;;;;;;5095309;28;20726;-69
2023/10/08 08:45:40;;;;;;;8.77;4.93;;;18.10;99.90;;;;;;5095081;28;20291;-69
2023/10/08 08:48:07;;;;;;;7.88;4.68;;;18.40;99.90;;;;;;5095154;28;20196;-69
2023/10/08 08:50:38;;;;;;;7.22;5.07;;;18.20;99.90;;;;;;5095155;28;20247;-69
2023/10/08 08:53:05;;;;;;;7.25;4.80;;;18.40;99.90;;;;;;5095224;28;20223;-69
2023/10/08 08:55:35;;;;;;;8.55;4.68;;;18.70;99.90;;;;;;5095050;28;20323;-68
2023/10/08 08:58:05;;;;;;;10.52;5.22;;;18.50;99.90;;;;;;5095033;28;20192;-69
2023/10/08 09:00:32;;;;;;;8.98;4.88;;;18.70;99.90;;;;;;5094766;28;20571;-68
2023/10/08 09:02:59;;;;;;;7.47;4.85;;;18.40;99.90;;;;;;5094999;28;20200;-69
2023/10/08 09:05:26;;;;;;;6.28;5.03;;;18.50;99.90;;;;;;5094860;28;20257;-69
2023/10/08 09:07:55;;;;;;;7.18;4.40;;;18.50;99.90;;;;;;5094766;28;20222;-69
2023/10/08 09:10:26;;;;;;;9.00;5.15;;;18.40;99.90;;;;;;5094565;28;20192;-69
2023/10/08 09:12:53;;;;;;;12.68;5.30;;;18.20;99.90;;;;;;5094771;28;20193;-69
2023/10/08 09:15:22;;;;;;;9.07;5.28;;;18.30;99.90;;;;;;5094647;28;20314;-69
2023/10/08 09:17:49;;;;;;;10.57;4.85;;;17.90;99.90;;;;;;5094408;28;20196;-69
2023/10/08 09:20:16;;;;;;;9.80;5.10;;;18.00;99.90;;;;;;5094503;28;20282;-69
2023/10/08 09:22:43;;;;;;;11.18;5.28;;;18.00;99.90;;;;;;5094394;28;20196;-69
2023/10/08 09:25:14;;;;;;;6.68;4.75;;;17.80;99.90;;;;;;5094225;28;20602;-69
2023/10/08 09:27:46;;;;;;;6.78;5.22;;;17.70;99.90;;;;;;5094160;28;20204;-69
2023/10/08 09:30:18;;;;;;;8.32;4.97;;;17.80;99.90;;;;;;5094067;28;20602;-69
2023/10/08 09:32:48;;;;;;;7.30;5.30;;;17.70;99.90;;;;;;5094281;28;20200;-69
2023/10/08 09:35:16;;;;;;;10.85;5.30;;;17.80;99.90;;;;;;5094190;28;20228;-69
2023/10/08 09:37:45;;;;;;;9.38;5.18;;;17.90;99.90;;;;;;5094031;28;20196;-69
2023/10/08 09:40:12;;;;;;;9.48;5.32;;;17.90;99.90;;;;;;5094059;28;20208;-69
2023/10/08 09:42:39;;;;;;;6.25;4.50;;;17.80;99.90;;;;;;5093680;28;20232;-69
2023/10/08 09:45:08;;;;;;;6.10;4.75;;;17.70;99.90;;;;;;5093834;28;20562;-69
2023/10/08 09:47:39;;;;;;;8.80;5.55;;;17.90;99.90;;;;;;5093754;28;20204;-69
2023/10/08 09:50:11;;;;;;;8.80;5.15;;;17.90;99.90;;;;;;5093378;28;20200;-69
2023/10/08 09:52:44;;;;;;;8.40;4.90;;;18.10;99.90;;;;;;5093579;28;20674;-69
2023/10/08 09:55:11;;;;;;;7.72;4.93;;;18.30;99.90;;;;;;5093712;28;20224;-69
2023/10/08 09:57:38;;;;;;;9.13;4.88;;;18.40;99.90;;;;;;5093785;28;20211;-69
2023/10/08 10:00:10;;;;;;;9.93;5.28;;;18.70;99.90;;;;;;5093832;28;20201;-70
2023/10/08 10:02:38;;;;;;;8.32;4.70;;;18.70;99.90;;;;;;5093623;28;20612;-69
2023/10/08 10:05:06;;;;;;;6.95;4.78;;;19.10;99.90;;;;;;5093483;28;20598;-69
2023/10/08 10:07:35;;;;;;;7.63;4.70;;;19.40;99.90;;;;;;5093695;28;20220;-69
2023/10/08 10:10:03;;;;;;;8.63;5.13;;;19.70;99.90;;;;;;5093611;28;20284;-69
2023/10/08 10:12:35;;;;;;;10.68;5.13;;;19.40;99.90;;;;;;5093416;28;20269;-69
2023/10/08 10:15:02;;;;;;;7.75;4.72;;;19.50;99.90;;;;;;5093588;28;20212;-69
2023/10/08 10:17:29;;;;;;;6.57;4.75;;;19.60;99.90;;;;;;5093204;28;20651;-69
2023/10/08 10:19:59;;;;;;;11.80;5.22;;;19.90;99.90;;;;;;5093620;28;20196;-69
2023/10/08 10:22:30;;;;;;;10.70;5.43;;;19.70;99.90;;;;;;5093350;28;20203;-69
2023/10/08 10:25:00;;;;;;;10.75;4.63;;;20.20;99.90;;;;;;5093208;28;20736;-69
2023/10/08 10:27:27;;;;;;;9.00;4.85;;;20.80;99.90;;;;;;5093231;28;20235;-69
2023/10/08 10:30:08;;;;;;;7.15;4.78;;;20.70;99.90;;;;;;5093174;28;20196;-69
2023/10/08 10:32:35;;;;;;;7.20;5.05;;;20.40;99.90;;;;;;5093744;28;20207;-70
2023/10/08 10:35:03;;;;;;;9.00;4.80;;;20.60;99.90;;;;;;5093289;28;20234;-70
2023/10/08 10:37:40;;;;;;;7.85;4.93;;;20.60;99.90;;;;;;5093179;28;20200;-70
2023/10/08 10:40:12;;;;;;;9.10;4.57;;;20.40;99.90;;;;;;5092741;28;20199;-70
2023/10/08 10:42:42;;;;;;;8.32;5.05;;;20.20;99.90;;;;;;5092948;28;20235;-70
2023/10/08 10:45:34;;;;;;;8.05;5.07;;;20.40;99.90;;;;;;5093202;28;20203;-70
2023/10/08 10:48:11;;;;;;;9.13;5.03;;;20.60;99.90;;;;;;5093124;28;20597;-70
2023/10/08 10:50:48;;;;;;;6.82;4.72;;;21.00;99.90;;;;;;5093188;28;20207;-70
2023/10/08 10:53:14;;;;;;;8.60;4.85;;;21.20;99.90;;;;;;5095241;28;20221;-70
2023/10/08 10:55:58;;;;;;;6.85;4.70;;;21.50;99.90;;;;;;5098404;28;20310;-70
2023/10/08 10:58:26;;;;;;;8.07;4.85;;;21.50;99.90;;;;;;5093469;28;20192;-69
2023/10/08 11:00:57;;;;;;;10.43;5.72;;;21.10;99.90;;;;;;5092632;28;20766;-70
2023/10/08 11:03:24;;;;;;;10.30;5.55;;;21.10;99.90;;;;;;5092771;28;20261;-70
2023/10/08 11:05:54;;;;;;;12.73;5.07;;;20.90;99.90;;;;;;5093176;28;20197;-70
2023/10/08 11:08:23;;;;;;;8.48;5.05;;;20.80;99.90;;;;;;5092963;28;20258;-69
2023/10/08 11:10:52;;;;;;;12.18;5.78;;;20.40;99.90;;;;;;5093096;28;20200;-70
2023/10/08 11:13:21;;;;;;;9.95;4.90;;;20.40;99.90;;;;;;5092686;28;20643;-70
2023/10/08 11:15:51;;;;;;;10.98;4.97;;;20.20;99.90;;;;;;5092755;28;20227;-70
2023/10/08 11:18:19;;;;;;;8.90;5.03;;;20.20;99.90;;;;;;5092652;28;20659;-70
2023/10/08 11:20:51;;;;;;;9.02;5.20;;;20.50;99.90;;;;;;5092648;28;20196;-70
2023/10/08 11:23:33;;;;;;;12.13;5.03;;;20.40;99.90;;;;;;5092690;28;20291;-69
2023/10/08 11:26:03;;;;;;;12.23;4.95;;;20.20;99.90;;;;;;5092627;28;20296;-69
2023/10/08 11:28:33;;;;;;;13.88;5.07;;;20.20;99.90;;;;;;5092452;28;20660;-70
2023/10/08 11:31:07;;;;;;;7.72;5.20;;;20.60;99.90;;;;;;5092845;28;20228;-70
2023/10/08 11:33:35;;;;;;;9.52;4.88;;;20.60;99.90;;;;;;5092709;28;20200;-70
2023/10/08 11:36:06;;;;;;;9.30;5.10;;;21.10;99.90;;;;;;5092554;28;20224;-70
2023/10/08 11:38:39;;;;;;;9.35;5.03;;;21.90;99.90;;;;;;5092626;28;20203;-70
2023/10/08 11:41:20;;;;;;;7.95;4.75;;;22.80;98.80;;;;;;5092270;28;20752;-69
2023/10/08 11:43:48;;;;;;;8.25;4.65;;;23.10;97.80;;;;;;5092559;28;20691;-70
2023/10/08 11:46:18;;;;;;;9.52;4.80;;;22.70;97.30;;;;;;5092369;28;20200;-70
2023/10/08 11:48:46;;;;;;;9.27;5.03;;;22.20;98.00;;;;;;5092670;28;20196;-69
2023/10/08 11:51:16;;;;;;;8.32;5.00;;;23.00;97.70;;;;;;5092625;28;20288;-69
2023/10/08 11:53:44;;;;;;;8.35;5.05;;;22.80;97.50;;;;;;5095156;28;20516;-69
2023/10/08 11:56:13;;;;;;;12.07;4.60;;;22.70;97.70;;;;;;5096087;28;20316;-70
2023/10/08 11:58:44;;;;;;;10.95;5.00;;;22.40;97.80;;;;;;5096211;28;20278;-70
2023/10/08 12:01:15;;;;;;;9.93;5.10;;;22.30;97.60;;;;;;5096237;28;20204;-69
2023/10/08 12:03:43;;;;;;;8.20;5.10;;;22.30;97.70;;;;;;5095993;28;20200;-69
2023/10/08 12:06:15;;;;;;;8.90;5.43;;;22.30;98.10;;;;;;5095880;28;20200;-70
2023/10/08 12:08:45;;;;;;;8.80;5.05;;;22.40;98.10;;;;;;5096038;28;20200;-69
2023/10/08 12:11:12;;;;;;;10.63;4.85;;;22.70;97.20;;;;;;5095876;28;20197;-69
2023/10/08 12:13:44;;;;;;;10.32;5.55;;;22.50;97.20;;;;;;5095650;28;20651;-69
2023/10/08 12:16:18;;;;;;;9.30;5.35;;;22.70;97.30;;;;;;5095614;28;20659;-69
2023/10/08 12:18:48;;;;;;;8.77;5.13;;;22.40;97.30;;;;;;5095905;28;20192;-70
2023/10/08 12:21:15;;;;;;;7.68;5.10;;;22.60;97.40;;;;;;5095632;28;20664;-69
2023/10/08 12:23:45;;;;;;;11.75;5.40;;;22.30;97.40;;;;;;5095788;28;20192;-70
2023/10/08 12:26:15;;;;;;;11.00;5.28;;;22.50;97.20;;;;;;5095584;28;20196;-69
2023/10/08 12:28:45;;;;;;;11.02;5.57;;;22.90;97.00;;;;;;5095486;28;20196;-69
2023/10/08 12:31:12;;;;;;;10.70;5.05;;;23.20;96.40;;;;;;5095772;28;20293;-70
2023/10/08 12:33:40;;;;;;;11.88;5.43;;;23.80;96.10;;;;;;5095426;28;20196;-69
2023/10/08 12:36:11;;;;;;;8.35;4.90;;;24.50;95.20;;;;;;5095405;28;20224;-70
2023/10/08 12:38:38;;;;;;;10.35;5.47;;;24.50;94.80;;;;;;5095427;28;20648;-69
2023/10/08 12:41:11;;;;;;;10.27;5.30;;;24.20;94.70;;;;;;5095141;28;20224;-69
2023/10/08 12:43:39;;;;;;;11.15;5.05;;;24.40;94.70;;;;;;5095155;28;20204;-70
2023/10/08 12:46:10;;;;;;;11.15;4.93;;;24.30;94.60;;;;;;5095266;28;20231;-70
2023/10/08 12:48:38;;;;;;;9.32;4.53;;;24.40;94.30;;;;;;5095103;28;20572;-69
2023/10/08 12:51:06;;;;;;;7.97;5.07;;;24.00;94.40;;;;;;5095193;28;20200;-69
2023/10/08 12:53:34;;;;;;;9.88;5.05;;;24.30;94.60;;;;;;5094961;28;20201;-69
2023/10/08 12:56:05;;;;;;;11.95;4.65;;;23.60;95.00;;;;;;5094783;28;20227;-69
2023/10/08 12:58:38;;;;;;;11.77;5.35;;;23.20;95.80;;;;;;5095059;28;20204;-70
2023/10/08 13:01:09;;;;;;;12.23;6.00;;;23.30;95.90;;;;;;5095076;28;20228;-69
2023/10/08 13:03:41;;;;;;;15.25;5.80;;;23.00;96.10;;;;;;5094579;28;20228;-69
2023/10/08 13:06:11;;;;;;;11.75;5.80;;;23.00;96.30;;;;;;5094769;28;20211;-69
2023/10/08 13:08:38;;;;;;;10.45;4.93;;;22.80;96.70;;;;;;5094560;28;20226;-70
2023/10/08 13:11:04;;;;;;;9.57;4.97;;;22.90;96.60;;;;;;5094803;28;20257;-70
2023/10/08 13:13:31;;;;;;;13.85;5.75;;;23.10;96.50;;;;;;5094520;28;20717;-69